x

9440910 - Toke Point, Wa (tokw1) Weather Station

4:54am - Thu 30th Mar 2017 All times are PDT. -7 hours from GMT.

  • Wind
    11mph, 17mph gusts
  • Sea Temp 49°f
  • Air Temp 46°f
  • Sea Pressure 1020.5mb
  • 9440910 - Toke Point, Wa
  • 9440910 - Toke Point, Wa

More Historic Weather Station data

Upgrade to MSW Pro to gain access to the past 30 days of data for over 8000 Wavebouys and Weather Stations around the globe.

Join Pro

Comparision Forecast

View Surf forecast
   
Thu 03/30 4:54am 11 17 mph 1020.5mb 49f 46f
4:48am 9 13 mph 1020.4mb 49f 46f
4:42am 8 10 mph 1020.4mb 49f 46f
4:36am 10 15 mph 1020.3mb 49f 46f
4:30am 15 17 mph 1020.1mb 49f 47f
4:24am 15 18 mph 1020.1mb 50f 47f
4:18am 14 17 mph 1020.1mb 49f 47f
4:12am 13 15 mph 1020mb 50f 47f
4:06am 14 16 mph 1020mb 50f 47f
4:00am 14 17 mph 1020mb 50f 46f
3:54am 16 22 mph 1020mb 50f 46f
3:48am 13 16 mph 1020mb 50f 46f
3:42am 13 20 mph 1020mb 50f 46f
3:36am 15 17 mph 1020mb 50f 46f
3:30am 14 15 mph 1020mb 50f 46f
3:24am 13 15 mph 1020mb 50f 46f
3:18am 13 20 mph 1020mb 50f 46f
3:12am 15 22 mph 1020mb 50f 47f
3:06am 13 15 mph 1019.8mb 50f 48f
3:00am 14 18 mph 1019.8mb 50f 48f
2:54am 13 16 mph 1019.7mb 50f 47f
2:48am 13 16 mph 1019.7mb 50f 47f
2:42am 9 10 mph 1019.8mb 50f 47f
2:36am 9 11 mph 1019.7mb 50f 47f
2:30am 8 10 mph 1019.8mb 50f 46f
2:24am 9 10 mph 1019.8mb 50f 46f
2:18am 8 10 mph 1019.8mb 50f 46f
2:12am 8 11 mph 1019.8mb 50f 46f
2:06am 6 8 mph 1019.8mb 50f 46f
2:00am 3 6 mph 1019.8mb 50f 45f
1:54am 5 6 mph 1019.8mb 50f 45f
1:48am 5 7 mph 1019.8mb 50f 45f
1:42am 7 8 mph 1019.7mb 50f 45f
1:36am 7 10 mph 1019.7mb 50f 45f
1:30am 9 15 mph 1019.7mb 50f 45f
1:24am 13 20 mph 1019.7mb 50f 45f
1:18am 16 20 mph 1019.7mb 50f 45f
1:12am 16 23 mph 1019.6mb 50f 46f
1:06am 15 20 mph 1019.4mb 50f 47f
1:00am 11 15 mph 1019.3mb 50f 47f
12:54am 10 14 mph 1019.3mb 50f 47f
12:48am 10 14 mph 1019.2mb 50f 47f
12:42am 10 14 mph 1019.2mb 50f 47f
12:36am 9 13 mph 1019.1mb 50f 47f
12:30am 10 16 mph 1019.1mb 50f 47f
12:24am 13 17 mph 1019.1mb 50f 47f
12:18am 10 13 mph 1019mb 50f 47f
12:12am 9 13 mph 1018.9mb 50f 47f
12:06am 11 15 mph 1018.8mb 50f 47f
12:00am 13 17 mph 1018.6mb 50f 47f
Wed 03/29 11:54pm 14 20 mph 1018.5mb 50f 47f
11:48pm 15 18 mph - - -
11:42pm 14 18 mph - - -
11:36pm 15 18 mph - - -
11:30pm 14 16 mph 1018.4mb 50f 47f
11:24pm 14 15 mph 1018.4mb 50f 47f
11:18pm 11 14 mph 1018.5mb 50f 47f
11:12pm 9 11 mph 1018.5mb 50f 47f
11:06pm 10 11 mph 1018.5mb 50f 47f
11:00pm 11 14 mph 1018.5mb 50f 47f
10:54pm 8 23 mph 1018.5mb 50f 46f
10:48pm 13 22 mph 1018.5mb 50f 46f
10:42pm 10 14 mph 1018.4mb 50f 47f
10:36pm 11 15 mph 1018.4mb 50f 47f
10:30pm 13 16 mph 1018.4mb 50f 47f
10:24pm 15 17 mph 1018.4mb 50f 47f
10:18pm 13 18 mph 1018.3mb 50f 47f
10:12pm 7 10 mph 1018.3mb 50f 47f
10:06pm 6 8 mph 1018.2mb 50f 47f
10:00pm 7 14 mph 1018.2mb 50f 47f
9:54pm 8 11 mph 1018.1mb 50f 47f
9:48pm 9 11 mph 1018mb 50f 46f
9:42pm 9 13 mph 1018mb 50f 46f
9:36pm 11 14 mph 1017.9mb 50f 46f
9:30pm 8 14 mph 1017.7mb 50f 47f
9:24pm 11 15 mph 1017.6mb 50f 47f
9:18pm 14 16 mph 1017.6mb 50f 47f
9:12pm 14 17 mph 1017.5mb 50f 47f
9:06pm 13 17 mph 1017.5mb 50f 47f
9:00pm 15 20 mph 1017.5mb 50f 47f
8:54pm 11 17 mph 1017.5mb 50f 47f
8:48pm 13 18 mph 1017.5mb 50f 47f
8:42pm 13 18 mph 1017.4mb 50f 46f
8:36pm 15 20 mph 1017.2mb 50f 47f
8:30pm 13 18 mph 1017.2mb 50f 47f
8:24pm 14 18 mph 1017.2mb 50f 47f
8:18pm 14 17 mph 1017.2mb 50f 47f
8:12pm 16 20 mph 1017.2mb 50f 47f
8:06pm 15 18 mph 1017.2mb 50f 47f
8:00pm 11 17 mph 1017.2mb 50f 47f
7:54pm 17 20 mph 1017.2mb 50f 47f
7:48pm 15 18 mph 1017.2mb 50f 47f
7:42pm 11 16 mph 1017.2mb 50f 47f
7:36pm 10 17 mph 1017.1mb 50f 47f
7:30pm 14 17 mph 1017.2mb 50f 47f
7:24pm 14 17 mph 1017.2mb 50f 47f
7:18pm 13 17 mph 1017.1mb 50f 47f
7:12pm 14 21 mph 1017mb 50f 47f
7:06pm 11 17 mph 1017.1mb 50f 47f
7:00pm 15 18 mph 1017mb 50f 47f
6:54pm 14 18 mph 1017mb 50f 47f
6:48pm 13 21 mph 1017mb 51f 48f
6:42pm 13 17 mph 1017mb 50f 47f
6:36pm 13 18 mph 1017mb 51f 47f
6:30pm 14 22 mph 1017mb 50f 47f
6:24pm 15 20 mph 1016.9mb 50f 47f
6:18pm 14 18 mph 1016.9mb 50f 48f
6:12pm 11 15 mph 1016.9mb 50f 48f
6:06pm 14 18 mph 1016.8mb 50f 48f
6:00pm 16 23 mph 1016.7mb 50f 47f
5:54pm 18 25 mph 1016.6mb 50f 48f
5:48pm 16 23 mph 1016.6mb 50f 48f
5:42pm 14 23 mph 1016.6mb 50f 49f
5:36pm 17 21 mph 1016.5mb 50f 49f
5:30pm 14 17 mph 1016.5mb 50f 48f
5:24pm 14 20 mph 1016.4mb 50f 48f
5:18pm 14 17 mph 1016.4mb 50f 48f
5:12pm 13 17 mph 1016.3mb 50f 48f
5:06pm 14 18 mph 1016.3mb 50f 47f
5:00pm 15 24 mph 1016.3mb 50f 47f
4:54pm 21 25 mph 1016.3mb 50f 47f
4:48pm 17 22 mph 1016.3mb 50f 47f
4:42pm 17 23 mph 1016.2mb 50f 47f
4:36pm 21 26 mph 1016.1mb 50f 47f
4:30pm 20 24 mph 1016mb 50f 47f
4:24pm 16 18 mph 1016mb 50f 47f
4:18pm 15 23 mph 1015.9mb 50f 48f
4:12pm 18 22 mph 1015.8mb 50f 48f
4:06pm 14 18 mph 1015.7mb 49f 49f
4:00pm 16 21 mph 1015.7mb 49f 49f
3:54pm 16 23 mph 1015.6mb 49f 48f
3:48pm 17 23 mph 1015.5mb 49f 48f
3:42pm 16 21 mph 1015.4mb 49f 48f
3:36pm 15 21 mph 1015.4mb 49f 48f
3:30pm 17 21 mph 1015.4mb 49f 48f
3:24pm 15 18 mph 1015.3mb 49f 48f
3:18pm 11 21 mph 1015.2mb 49f 48f
3:12pm 17 22 mph 1015.2mb 49f 48f
3:06pm 14 18 mph 1015mb 49f 50f
3:00pm 14 18 mph 1014.9mb 49f 50f
2:54pm 10 17 mph 1014.9mb 49f 50f
2:48pm 15 18 mph 1014.8mb 49f 50f
2:42pm 11 18 mph 1014.7mb 49f 51f
2:36pm 13 21 mph 1014.6mb 49f 51f
2:30pm 13 18 mph 1014.6mb 49f 51f
2:24pm 14 18 mph 1014.6mb 49f 50f
2:18pm 14 21 mph 1014.5mb 49f 50f
2:12pm 14 20 mph 1014.4mb 49f 50f
2:06pm 14 18 mph 1014.4mb 49f 50f
2:00pm 15 22 mph 1014.4mb 49f 49f
1:54pm 15 20 mph 1014.4mb 49f 49f
1:48pm 15 20 mph 1014.3mb 49f 49f
1:42pm 13 20 mph 1014.2mb 49f 49f
1:36pm 14 21 mph 1014.2mb 49f 49f
1:30pm 15 22 mph 1014mb 49f 50f
1:24pm 17 23 mph 1013.8mb 49f 49f
1:18pm 15 21 mph 1013.8mb 49f 49f
1:12pm 15 23 mph 1013.8mb 49f 49f
1:06pm 15 22 mph 1013.7mb 49f 49f
1:00pm 15 24 mph 1013.6mb 49f 49f
12:54pm 16 23 mph 1013.5mb 49f 49f
12:48pm 16 23 mph 1013.4mb 49f 49f
12:42pm 17 24 mph 1013.3mb 49f 49f
12:36pm 17 25 mph 1013.3mb 49f 49f
12:30pm 17 24 mph 1013.3mb 49f 49f
12:24pm 17 29 mph 1013.2mb 49f 49f
12:18pm 20 29 mph 1013.1mb 49f 49f
12:12pm 20 30 mph 1013mb 49f 49f
12:06pm 18 25 mph 1012.9mb 49f 49f
12:00pm 20 28 mph 1012.8mb 49f 50f
11:54am 24 29 mph 1012.7mb 49f 50f
11:48am 18 30 mph 1012.5mb 49f 50f
11:42am 20 29 mph 1012.5mb 49f 50f
11:36am 16 23 mph 1012.4mb 49f 50f
11:30am 23 29 mph 1012.4mb 49f 50f
11:24am 22 31 mph 1012.2mb 49f 51f
11:18am 20 24 mph 1012.2mb 49f 51f
11:12am 21 26 mph 1012.1mb 49f 51f
11:06am 21 31 mph 1012mb 49f 51f
11:00am 20 28 mph 1011.9mb 49f 50f
10:54am 22 32 mph 1011.7mb 49f 50f
10:48am 22 28 mph 1011.7mb 49f 51f
10:42am 18 29 mph 1011.6mb 49f 51f
10:36am 22 30 mph 1011.5mb 49f 51f
10:30am 22 30 mph 1011.4mb 49f 51f
10:24am 22 30 mph 1011.3mb 49f 51f
10:18am 21 28 mph 1011.3mb 49f 51f
10:12am 20 26 mph 1011.3mb 49f 51f
10:06am 18 28 mph 1011.1mb 49f 51f
10:00am 20 29 mph 1010.9mb 49f 51f
9:54am 21 28 mph 1010.8mb 49f 51f
9:48am 21 29 mph 1010.8mb 49f 51f
9:42am 20 26 mph 1010.8mb 49f 51f
9:36am 17 30 mph 1010.8mb 49f 51f
9:30am 20 30 mph 1010.7mb 49f 51f
9:24am 22 33 mph 1010.6mb 49f 51f
9:18am 17 30 mph 1010.5mb 49f 51f
9:12am 22 29 mph 1010.5mb 49f 51f
9:06am 26 31 mph 1010.3mb 49f 51f
9:00am 23 31 mph 1010.4mb 49f 51f
8:54am 24 31 mph 1010.3mb 49f 51f
8:48am 18 34 mph 1010.4mb 49f 51f
8:42am 24 29 mph 1010.3mb 49f 51f
8:36am 25 31 mph 1010.3mb 49f 51f
8:30am 22 31 mph 1010.4mb 49f 51f
8:24am 22 29 mph 1010.3mb 49f 51f
8:18am 23 30 mph 1010.4mb 49f 51f
8:12am 22 30 mph 1010.4mb 49f 51f
8:06am 25 32 mph 1010.3mb 49f 51f
8:00am 23 36 mph 1010.4mb 49f 51f
7:54am 22 30 mph 1010.5mb 49f 51f
7:48am 22 31 mph 1010.6mb 49f 51f
7:42am 26 33 mph 1010.5mb 49f 51f
7:36am 24 37 mph 1010.4mb 49f 51f
7:30am 25 30 mph 1010.3mb 49f 51f
7:24am 21 29 mph 1010.6mb 49f 50f
7:18am 22 29 mph 1010.7mb 49f 50f
7:12am 23 31 mph 1010.6mb 49f 50f
7:06am 24 31 mph 1010.5mb 49f 50f
7:00am 26 32 mph 1010.4mb 49f 50f
6:54am 25 31 mph 1010.5mb 49f 50f
6:48am 25 32 mph 1010.6mb 49f 50f
6:42am 26 33 mph 1010.6mb 49f 50f
6:36am 25 33 mph 1010.6mb 49f 50f
6:30am 26 37 mph 1010.6mb 49f 50f
6:24am 29 36 mph 1010.6mb 49f 50f
6:18am 29 34 mph 1010.6mb 49f 50f
6:12am 28 34 mph 1010.6mb 49f 50f
6:06am 26 36 mph 1010.7mb 49f 50f
6:00am 23 32 mph 1010.8mb 49f 50f
5:54am 25 36 mph 1010.9mb 49f 50f
5:48am 29 36 mph 1010.8mb 49f 50f
5:42am 30 37 mph 1010.7mb 49f 50f
5:36am 30 37 mph 1010.9mb 49f 49f
5:30am 29 36 mph 1011mb 49f 49f
5:24am 29 37 mph 1011mb 49f 49f
5:18am 29 36 mph 1011.2mb 49f 49f
5:12am 29 38 mph 1011.2mb 49f 49f
5:06am 28 34 mph 1011.3mb 49f 49f
5:00am 26 33 mph 1011.4mb 49f 49f
4:54am 24 31 mph 1011.7mb 49f 49f
4:48am 24 32 mph 1011.8mb 49f 49f
4:42am 23 29 mph 1012mb 49f 49f
4:36am 23 28 mph 1012mb 49f 48f
4:30am 22 29 mph 1012mb 49f 48f
4:24am 23 31 mph 1012.1mb 49f 48f
4:18am 23 30 mph 1012.3mb 49f 48f
4:12am 22 28 mph 1012.5mb 49f 48f
4:06am 22 26 mph 1012.4mb 49f 48f
4:00am 22 28 mph 1012.5mb 49f 48f
3:54am 20 24 mph 1012.9mb 49f 47f
3:48am 17 22 mph 1013.1mb 49f 47f
3:42am 16 21 mph 1013.2mb 49f 47f
3:36am 15 18 mph 1013.5mb 49f 47f
3:30am 15 17 mph 1013.8mb 49f 47f
3:24am 14 16 mph 1014.1mb 49f 46f
3:18am 11 15 mph 1014.4mb 49f 47f
3:12am 10 13 mph 1014.8mb 49f 46f
3:06am 10 15 mph 1014.7mb 49f 46f
3:00am 15 17 mph 1014.3mb 49f 46f
2:54am 14 18 mph 1014.4mb 50f 47f
2:48am 15 17 mph 1014.5mb 50f 46f
2:42am 14 17 mph 1014.7mb 50f 46f
2:36am 14 18 mph 1014.8mb 50f 46f
2:30am 15 20 mph 1015mb 50f 46f
2:24am 16 20 mph 1015.1mb 50f 46f
2:18am 14 17 mph 1015.3mb 50f 46f
2:12am 14 18 mph 1015.5mb 50f 46f
2:06am 17 21 mph 1015.5mb 50f 46f
2:00am 16 22 mph 1015.6mb 50f 46f
1:54am 16 20 mph 1015.8mb 50f 47f
1:48am 17 21 mph 1016mb 50f 46f
1:42am 16 21 mph 1016.1mb 50f 46f
1:36am 15 18 mph 1016.3mb 50f 46f
1:30am 16 18 mph 1016.6mb 50f 47f
1:24am 15 20 mph 1016.8mb 50f 46f
1:18am 15 21 mph 1017mb 50f 47f
1:12am 16 18 mph 1017.1mb 50f 47f
1:06am 16 23 mph 1017.4mb 50f 47f
1:00am 16 22 mph 1017.6mb 50f 47f
12:54am 17 21 mph 1017.7mb 50f 47f
12:48am 16 21 mph 1017.8mb 50f 47f
12:42am 15 20 mph 1018mb 50f 47f
12:36am 15 22 mph 1018.1mb 50f 47f
12:30am 17 22 mph 1018.1mb 50f 47f
12:24am 17 21 mph 1018.3mb 49f 47f
12:18am 16 20 mph 1018.4mb 50f 47f
12:12am 17 21 mph 1018.5mb 50f 47f
12:06am 15 22 mph 1018.5mb 50f 47f
12:00am 17 22 mph 1018.7mb 50f 47f
Tue 03/28 11:54pm 18 23 mph 1018.8mb 49f 48f
11:48pm 17 22 mph 1019mb 50f 48f
11:42pm 18 22 mph 1019mb 50f 48f
11:36pm 16 21 mph 1019.1mb 50f 48f
11:30pm 20 23 mph 1019.1mb 50f 48f
11:24pm 17 22 mph 1019.2mb 50f 48f
11:18pm 15 20 mph 1019.4mb 50f 48f
11:12pm 16 20 mph 1019.5mb 50f 48f
11:06pm 18 22 mph 1019.4mb 50f 48f
11:00pm 16 24 mph 1019.5mb 50f 48f
10:54pm 23 29 mph 1019.4mb 50f 49f
10:48pm 28 34 mph 1019.6mb 50f -
10:42pm 30 38 mph 1019.7mb 49f -
10:36pm 24 31 mph 1019.9mb 49f -
10:30pm 25 32 mph 1020mb 49f 49f
10:24pm 26 33 mph 1020.1mb 49f 49f
10:18pm 23 32 mph 1020.2mb 49f 49f
10:12pm 23 33 mph 1020.2mb 49f 49f
10:06pm 28 37 mph 1020.3mb 49f 49f
10:00pm 26 33 mph 1020.3mb 49f 49f
9:54pm 26 32 mph 1020.3mb 49f 49f
9:48pm 25 30 mph 1020.4mb 49f 49f
9:42pm 23 31 mph 1020.6mb 49f 49f
9:36pm 25 31 mph 1020.7mb 49f 49f
9:30pm 24 31 mph 1020.6mb 49f 50f
9:24pm 26 30 mph 1020.6mb 49f 50f
9:18pm 25 31 mph 1020.7mb 49f 50f
9:12pm 24 30 mph 1020.8mb 49f 50f
9:06pm 23 28 mph 1020.7mb 49f 50f
9:00pm 22 26 mph 1020.8mb 49f 50f
8:54pm 22 28 mph 1020.9mb 49f 50f
8:48pm 22 28 mph 1020.9mb 49f 50f
8:42pm 21 26 mph 1020.9mb 49f 50f
8:36pm 21 28 mph 1020.9mb 49f 50f
8:30pm 22 26 mph 1020.9mb 49f 50f
8:24pm 23 29 mph 1020.9mb 50f 50f
8:18pm 21 29 mph 1020.9mb 50f 50f
8:12pm 21 26 mph 1020.9mb 50f 50f
8:06pm 22 25 mph 1020.9mb 50f 50f
8:00pm 22 26 mph 1020.9mb 50f 50f
7:54pm 22 29 mph 1021mb 50f 50f
7:48pm 24 30 mph 1020.9mb 50f 50f
7:42pm 23 29 mph 1021mb 50f 50f
7:36pm 24 30 mph 1021mb 50f 50f
7:30pm 23 26 mph 1021mb 50f 50f
7:24pm 22 28 mph 1021.1mb 50f 50f
7:18pm 22 28 mph 1021.1mb 50f 50f
7:12pm 22 29 mph 1021.2mb 50f 50f
7:06pm 22 26 mph 1021.3mb 50f 50f
7:00pm 22 30 mph 1021.4mb 50f 50f
6:54pm 23 29 mph 1021.4mb 50f 50f
6:48pm 24 30 mph 1021.4mb 50f 50f
6:42pm 24 31 mph 1021.4mb 50f 50f
6:36pm 24 30 mph 1021.4mb 50f 49f
6:30pm 24 28 mph 1021.5mb 50f 49f
6:24pm 22 29 mph 1021.5mb 50f 49f
6:18pm 22 28 mph 1021.6mb 50f 49f
6:12pm 21 28 mph 1021.6mb 50f 49f
6:06pm 21 26 mph 1021.7mb 50f 49f
6:00pm 21 29 mph 1021.6mb 50f 49f
5:54pm 23 30 mph 1021.4mb 50f 50f
5:48pm 23 28 mph 1021.4mb 50f 50f
5:42pm 22 29 mph 1021.5mb 50f 50f
5:36pm 22 28 mph 1021.4mb 50f 50f
5:30pm 22 28 mph 1021.5mb 50f 50f
5:24pm 23 29 mph 1021.4mb 50f 50f
5:18pm 23 29 mph 1021.4mb 50f 50f
5:12pm 24 29 mph 1021.4mb 50f 50f
5:06pm 23 26 mph 1021.5mb 50f 50f
5:00pm 25 30 mph 1021.5mb 50f 50f
4:54pm 24 30 mph 1021.6mb 50f 49f
4:48pm 24 30 mph 1021.6mb 50f 49f
4:42pm 24 29 mph 1021.7mb 50f 49f
4:36pm 24 36 mph 1021.7mb 50f 49f
4:30pm 26 30 mph 1021.6mb 50f 49f
4:24pm 25 32 mph 1021.7mb 50f 49f
4:18pm 22 33 mph 1021.8mb 50f 49f
4:12pm 25 33 mph 1021.8mb 50f 49f
4:06pm 29 37 mph 1021.6mb 50f 49f
4:00pm 28 34 mph 1021.5mb 50f 49f
3:54pm 25 30 mph 1021.7mb 50f 49f
3:48pm 24 31 mph 1021.9mb 50f 49f
3:42pm 25 32 mph 1021.9mb 50f 49f
3:36pm 24 29 mph 1022.1mb 50f 49f
3:30pm 24 31 mph 1022.2mb 50f 49f
3:24pm 25 31 mph 1022.2mb 50f 49f
3:18pm 24 30 mph 1022.3mb 50f 49f
3:12pm 24 30 mph 1022.5mb 50f 49f
3:06pm 22 29 mph 1022.6mb 50f 49f
3:00pm 20 25 mph 1022.8mb 50f 49f
2:54pm 22 29 mph 1022.9mb 50f 49f
2:48pm 22 29 mph 1022.8mb 50f 49f
2:42pm 22 29 mph 1022.7mb 50f 49f
2:36pm 24 33 mph 1022.5mb 50f 49f
2:30pm 23 29 mph 1022.5mb 50f 49f
2:24pm 22 29 mph 1022.5mb 50f 49f
2:18pm 23 31 mph 1022.5mb 50f 49f
2:12pm 21 25 mph 1022.8mb 50f 49f
2:06pm 21 26 mph 1022.7mb 50f 49f
2:00pm 20 28 mph 1022.7mb 50f 49f
1:54pm 20 26 mph 1022.8mb 50f 49f
1:48pm 18 25 mph 1022.8mb 49f 49f
1:42pm 22 28 mph 1022.8mb 49f 49f
1:36pm 21 26 mph 1022.7mb 49f 49f
1:30pm 18 25 mph 1022.7mb 49f 49f
1:24pm 18 24 mph 1022.8mb 49f 49f
1:18pm 18 23 mph 1023mb 49f 49f
1:12pm 16 24 mph 1023.1mb 49f 49f
1:06pm 17 25 mph 1023.1mb 49f 49f
1:00pm 18 23 mph 1023mb 49f 49f
12:54pm 17 23 mph 1023mb 49f 49f
12:48pm 22 26 mph 1023.1mb 49f 50f
12:42pm 23 30 mph 1023.1mb 49f 50f
12:36pm 22 26 mph 1023.1mb 49f 50f
12:30pm 22 29 mph 1023.1mb 49f 50f
12:24pm 20 25 mph 1023.1mb 49f 50f
12:18pm 17 26 mph 1023.1mb 49f 50f
12:12pm 18 24 mph 1023.1mb 49f 50f
12:06pm 17 25 mph 1023mb 49f 50f
12:00pm 22 29 mph 1023.1mb 49f 50f
11:54am 20 26 mph 1023.2mb 49f 50f
11:48am 21 26 mph 1023.1mb 49f 50f
11:42am 22 28 mph 1023.1mb 49f 50f
11:36am 23 28 mph 1023mb 49f 50f
11:30am 23 33 mph 1023mb 49f 50f
11:24am 23 31 mph 1022.9mb 49f 50f
11:18am 25 30 mph 1022.9mb 49f 50f
11:12am 23 31 mph 1023.1mb 49f 50f
11:06am 24 31 mph 1023.2mb 49f 50f
11:00am 24 31 mph 1023.1mb 49f 50f
10:54am 23 31 mph 1023.1mb 49f 50f
10:48am 23 30 mph 1023.1mb 49f 50f
10:42am 20 25 mph 1023.2mb 49f 50f
10:36am 20 26 mph 1023.3mb 49f 50f
10:30am 21 28 mph 1023.2mb 49f 50f
10:24am 20 26 mph 1023.3mb 49f 50f
10:18am 21 26 mph 1023.2mb 49f 50f
10:12am 17 28 mph 1023.2mb 49f 50f
10:06am 21 28 mph 1023.1mb 49f 50f
10:00am 22 29 mph 1023mb 49f 50f
9:54am 24 32 mph 1023mb 49f 50f
9:48am 21 30 mph 1023.2mb 49f 50f
9:42am 18 26 mph 1023.3mb 49f 50f
9:36am 21 25 mph 1023.3mb 49f 50f
9:30am 18 25 mph 1023.3mb 49f 50f
9:24am 18 26 mph 1023.2mb 49f 50f
9:18am 20 29 mph 1023.2mb 49f 50f
9:12am 22 29 mph 1023.2mb 49f 50f
9:06am 21 29 mph 1023mb 49f 50f
9:00am 22 29 mph 1023.1mb 49f 50f
8:54am 21 26 mph 1023.1mb 49f 50f
8:48am 21 28 mph 1023.1mb 49f 50f
8:42am 21 28 mph 1023.2mb 49f 50f
8:36am 15 22 mph 1023.2mb 49f 49f
8:30am 17 23 mph 1023.2mb 49f 49f
8:24am 20 25 mph 1023mb 49f 49f
8:18am 21 26 mph 1022.9mb 49f 49f
8:12am 20 25 mph 1022.8mb 49f 49f
8:06am 22 29 mph 1022.7mb 49f 49f
8:00am 22 28 mph 1022.5mb 49f 49f
7:54am 20 28 mph 1022.7mb 49f 49f
7:48am 20 26 mph 1022.6mb 49f 49f
7:42am 20 25 mph 1022.5mb 49f 49f
7:36am 20 26 mph 1022.6mb 49f 49f
7:12am 21 28 mph 1022.5mb 49f 49f
7:06am 18 26 mph 1022.4mb 49f 49f
7:00am 20 26 mph 1022.5mb 49f 49f
6:54am 18 24 mph 1022.4mb 49f 49f
6:48am 20 25 mph 1022.5mb 49f 49f
6:42am 17 25 mph 1022.3mb 49f 49f
6:36am 17 24 mph 1022.3mb 49f 49f
6:30am 20 26 mph 1022.3mb 49f 49f
6:12am 20 24 mph 1022.3mb 49f 49f
6:06am 18 26 mph 1022.4mb 49f 49f
6:00am 22 26 mph 1022.2mb 49f 49f
5:54am 20 24 mph 1022.3mb 49f 49f
5:48am 20 25 mph 1022.4mb 49f 49f
5:36am 20 25 mph 1022.3mb 49f 49f
5:30am 21 26 mph 1022.2mb 49f 49f
5:24am 18 24 mph 1022.4mb 49f 49f
5:18am 17 23 mph 1022.5mb 49f 49f
5:12am 17 24 mph 1022.6mb 49f 49f
5:06am 20 25 mph 1022.6mb 49f 49f
5:00am 18 24 mph 1022.6mb 49f 49f
4:54am 17 24 mph 1022.8mb 49f 49f
4:48am 20 25 mph 1022.9mb 49f 49f
4:42am 20 25 mph 1023mb 49f 49f
4:36am 17 23 mph 1023mb 49f 49f
4:30am 17 23 mph 1023.2mb 49f 49f
4:24am 18 24 mph 1023.3mb 49f 49f
4:18am 18 23 mph 1023.4mb 49f 49f
4:12am 17 26 mph 1023.4mb 49f 49f
4:06am 18 28 mph 1023.2mb 49f 49f
4:00am 20 25 mph 1023.1mb 49f 49f
3:54am 17 24 mph 1023mb 49f 49f
3:48am 18 23 mph 1023mb 49f 49f
3:42am 22 26 mph 1022.9mb 49f 49f
3:36am 22 28 mph 1022.9mb 49f 49f
3:30am 20 25 mph 1023mb 50f 49f
3:24am 21 25 mph 1023mb 49f 49f
3:18am 18 28 mph 1023.1mb 50f 49f
3:12am 21 24 mph 1023.1mb 50f 49f
3:06am 21 24 mph 1023.1mb 50f 49f
3:00am 21 24 mph 1023.1mb 50f 49f
2:54am 20 26 mph 1023.4mb 50f 49f
2:48am 20 24 mph 1023.4mb 50f 49f
2:42am 18 25 mph 1023.5mb 50f 49f
2:36am 18 24 mph 1023.5mb 50f 49f
2:30am 18 24 mph 1023.5mb 50f 49f
2:24am 21 23 mph 1023.6mb 50f 48f
2:18am 18 23 mph 1023.6mb 50f 48f
2:12am 18 24 mph 1023.8mb 50f 49f
2:06am 17 22 mph 1023.8mb 50f 49f
2:00am 18 24 mph 1024mb 50f 49f
1:54am 16 21 mph 1024mb 50f 49f
1:48am 18 23 mph 1024.1mb 50f 48f
1:42am 16 22 mph 1024.2mb 50f 48f
1:36am 16 21 mph 1024.2mb 50f 48f
1:30am 15 20 mph 1024.3mb 50f 48f
1:24am 17 22 mph 1024.3mb 50f 48f
1:18am 17 21 mph 1024.3mb 50f 48f
1:12am 17 22 mph 1024.4mb 50f 48f
1:06am 18 22 mph 1024.4mb 50f 48f
1:00am 18 22 mph 1024.4mb 50f 47f
12:54am 18 22 mph 1024.5mb 50f 47f
12:48am 18 22 mph 1024.7mb 50f 47f
12:42am 15 18 mph 1024.7mb 50f 47f
12:36am 17 20 mph 1024.8mb 50f 47f
12:30am 17 18 mph 1024.8mb 50f 47f
12:24am 16 21 mph 1024.9mb 50f 47f
12:18am 17 23 mph 1024.6mb 50f 47f
12:12am 17 22 mph 1024.7mb 49f 47f
12:06am 18 23 mph 1024.8mb 49f 46f
12:00am 18 22 mph 1024.9mb 49f 47f
Mon 03/27 11:54pm 17 23 mph 1025mb 50f 47f
11:48pm 17 22 mph 1025mb 50f 47f
11:42pm 15 24 mph 1025mb 50f 47f
11:36pm 16 20 mph 1025mb 50f 47f
11:30pm 13 20 mph 1025mb 50f 47f
11:24pm 14 18 mph 1025.1mb 50f 47f
11:18pm 14 21 mph 1025.1mb 50f 47f
11:12pm 16 22 mph 1025mb 50f 47f
11:06pm 15 22 mph 1025.1mb 50f 47f
11:00pm 13 18 mph 1025.2mb 50f 47f
10:54pm 15 18 mph 1025.1mb 50f 47f
10:48pm 13 18 mph 1025.1mb 50f 47f
10:42pm 14 20 mph 1025mb 50f 47f
10:36pm 14 21 mph 1025mb 50f 47f
10:30pm 14 21 mph 1024.8mb 50f 47f
10:24pm 13 24 mph 1025mb 50f 47f
10:18pm 15 21 mph 1025mb 50f 47f
10:12pm 14 21 mph 1025mb 50f 47f
10:06pm 16 21 mph 1025mb 50f 47f
10:00pm 15 18 mph 1025mb 50f 47f
9:54pm 14 23 mph 1024.9mb 50f 46f
9:48pm 13 17 mph 1024.8mb 50f 47f
9:42pm 14 16 mph 1024.6mb 50f 47f
9:36pm 13 16 mph 1024.6mb 50f 47f
9:30pm 11 16 mph 1024.7mb 50f 47f
9:24pm 11 16 mph 1024.6mb 50f 47f
9:18pm 11 14 mph 1024.6mb 50f 47f
9:12pm 11 17 mph 1024.7mb 50f 47f
9:06pm 8 14 mph 1024.8mb 50f 47f
9:00pm 9 14 mph 1024.7mb 50f 47f
8:54pm 10 16 mph 1024.6mb 50f 47f
8:48pm 9 14 mph 1024.6mb 50f 47f
8:42pm 9 15 mph 1024.6mb 50f 47f
8:36pm 9 15 mph 1024.6mb 50f 47f
8:30pm 9 14 mph 1024.6mb 50f 47f
8:24pm 8 14 mph 1024.5mb 50f 47f
8:18pm 11 16 mph 1024.6mb 50f 46f
8:12pm 11 16 mph 1024.7mb 50f 46f
8:06pm 11 15 mph 1024.7mb 50f 46f
8:00pm 11 17 mph 1024.7mb 50f 46f
7:54pm 14 18 mph 1024.7mb 50f 46f
7:48pm 14 20 mph 1024.7mb 50f 46f
7:42pm 14 20 mph 1024.7mb 50f 46f
7:36pm 13 16 mph 1024.6mb 50f 46f
7:30pm 13 18 mph 1024.6mb 50f 46f
7:24pm 13 18 mph 1024.5mb 50f 46f
7:18pm 11 18 mph 1024.5mb 50f 47f
7:12pm 14 20 mph 1024.4mb 50f 47f
7:06pm 11 17 mph 1024.5mb 50f 47f
7:00pm 13 17 mph 1024.4mb 50f 47f
6:54pm 13 17 mph 1024.3mb 50f 47f
6:48pm 13 18 mph - - -
6:42pm 13 18 mph 1024.3mb 50f 47f
6:36pm 14 21 mph 1024.3mb 50f 47f
6:30pm 15 21 mph 1024.2mb 50f 47f
6:24pm 15 22 mph 1024.1mb 50f 47f
6:18pm 13 18 mph 1024mb 50f 47f
6:12pm 14 17 mph 1024mb 50f 47f
6:06pm 14 20 mph 1023.8mb 50f 47f
6:00pm 16 21 mph 1024mb 50f 47f
5:54pm 14 17 mph 1024.1mb 50f 47f
5:48pm 15 21 mph 1024mb 50f 47f
5:42pm 13 20 mph 1024mb 51f 47f
5:36pm 17 23 mph 1024mb 50f 46f
5:30pm 16 20 mph 1023.9mb 50f 47f
5:24pm 14 20 mph 1023.8mb 50f 48f
5:18pm 15 20 mph - - -
5:12pm 14 17 mph 1023.5mb 50f 48f
5:06pm 15 18 mph 1023.4mb 50f 48f
5:00pm 13 17 mph 1023.3mb 50f 48f
4:54pm 14 20 mph 1023.5mb 50f 48f
4:48pm 15 21 mph 1023.6mb 50f 48f
4:42pm 13 18 mph 1023.4mb 50f 48f
4:36pm 15 17 mph 1023.4mb 50f 48f
4:30pm 13 18 mph 1023.2mb 50f 48f
4:24pm 11 16 mph 1023.3mb 50f 48f
4:18pm 13 16 mph 1023.4mb 50f 48f
4:12pm 11 18 mph 1023.3mb 50f 48f
4:06pm 15 24 mph 1023.3mb 50f 47f
4:00pm 16 22 mph 1023.2mb 50f 48f
3:54pm 16 21 mph 1023.2mb 50f 49f
3:48pm 15 18 mph 1023.3mb 49f 49f
3:42pm 16 20 mph 1023.3mb 50f 48f
3:36pm 15 20 mph 1023.4mb 50f 49f
3:30pm 14 17 mph 1023.2mb 50f 49f
3:24pm 14 17 mph 1023.1mb 50f 48f
3:18pm 11 16 mph 1023.3mb 50f 47f
3:12pm 15 22 mph 1023.4mb 50f 47f
3:06pm 17 22 mph 1023.3mb 49f 47f
3:00pm 14 21 mph 1023.2mb 49f 48f
2:54pm 14 22 mph 1023.1mb 50f 48f
2:48pm 16 22 mph 1022.9mb 49f 49f
2:42pm 13 21 mph 1022.8mb 49f 49f
2:36pm 14 18 mph 1022.8mb 49f 49f
2:30pm 14 17 mph 1022.7mb 49f 49f
2:24pm 14 20 mph 1022.5mb 49f 49f
2:18pm 14 22 mph 1022.5mb 49f 50f
2:12pm 17 22 mph 1022.3mb 49f 49f
2:06pm 16 22 mph 1022.3mb 49f 50f
2:00pm 17 21 mph 1022.1mb 49f 50f
1:54pm 14 20 mph 1021.9mb 49f 50f
1:48pm 16 20 mph 1021.9mb 49f 49f
1:42pm 14 18 mph 1021.7mb 49f 50f
1:36pm 11 20 mph 1021.6mb 49f 50f
1:30pm 15 21 mph 1021.6mb 49f 49f
1:24pm 17 23 mph 1021.6mb 49f 49f
1:18pm 16 21 mph 1021.6mb 49f 50f
1:12pm 16 21 mph 1021.5mb 49f 49f
1:06pm 15 21 mph 1021.3mb 49f 50f
1:00pm 14 22 mph 1021.4mb 49f 50f
12:54pm 15 23 mph 1021.3mb 49f 50f
12:48pm 14 20 mph 1021.2mb 49f 50f
12:42pm 15 20 mph 1021.1mb 49f 50f
12:36pm 14 18 mph 1020.9mb 49f 50f
12:30pm 14 16 mph 1020.7mb 49f 50f
12:24pm 15 20 mph 1020.7mb 49f 50f
12:18pm 14 18 mph 1020.7mb 49f 50f
12:12pm 14 17 mph 1020.7mb 49f 49f
12:06pm 11 17 mph 1020.8mb 49f 49f
12:00pm 13 17 mph 1020.8mb 49f 49f
11:54am 14 17 mph 1020.6mb 49f 49f
11:48am 13 16 mph - 49f 49f
11:42am 13 16 mph - 49f 49f
11:36am 13 17 mph - 49f 48f
11:30am 15 21 mph 1019.8mb - 48f
11:24am 14 18 mph 1019.7mb - 49f
11:18am 11 16 mph 1019.6mb 49f 49f
11:12am 13 17 mph 1019.5mb 49f 49f
11:06am 14 18 mph 1019.3mb 49f 49f
11:00am 14 18 mph 1019.2mb 49f 49f
10:54am 14 17 mph 1019.2mb 49f 49f
10:48am 11 16 mph 1019mb 49f 49f
10:42am 13 17 mph 1019mb 49f 49f
10:36am 13 17 mph 1018.8mb 49f 49f
10:30am 13 17 mph 1018.6mb 49f 49f
10:24am 14 17 mph 1018.4mb 49f 49f
10:18am 13 16 mph 1018.3mb 49f 48f
10:12am 9 13 mph 1018.1mb 49f 48f
10:06am 8 11 mph 1018.1mb 49f 48f
10:00am 9 15 mph 1018mb 49f 47f
9:54am 14 20 mph 1017.8mb 49f 47f
9:48am 11 16 mph 1017.7mb 49f 49f
9:42am 10 15 mph 1017.7mb 49f 48f
9:36am 11 16 mph 1017.7mb 48f 48f
9:30am 11 16 mph 1017.6mb 49f 48f
9:24am 11 16 mph 1017.6mb 49f 47f
9:18am 9 13 mph 1017.5mb 48f 48f
9:12am 9 13 mph 1017.5mb 48f 48f
9:06am 9 13 mph 1017.4mb 48f 47f
9:00am 9 17 mph 1017.3mb 48f 47f
8:54am 7 10 mph 1017.3mb 48f 47f
8:48am 8 14 mph 1017.2mb 48f 46f
8:42am 11 14 mph 1017.1mb 48f 47f
8:36am 8 11 mph 1016.8mb 48f 47f
8:30am 8 10 mph 1016.7mb 48f 47f
8:24am 7 10 mph 1016.5mb 48f 47f
8:18am 7 10 mph 1016.4mb 48f 47f
8:12am 8 11 mph 1016.1mb 48f 47f
8:06am 7 11 mph 1015.9mb 48f 47f
8:00am 8 9 mph 1015.8mb 48f 47f
7:54am 7 8 mph 1015.8mb 48f 46f
7:48am 6 9 mph 1015.6mb 49f 46f
7:42am 7 9 mph 1015.5mb 49f 46f
7:36am 7 11 mph 1015.5mb 48f 46f
7:30am 7 14 mph 1015.5mb 48f 46f
7:24am 10 15 mph 1015.5mb 48f 46f
7:18am 10 15 mph 1015.5mb 48f 46f
7:12am 13 16 mph 1015.4mb 49f 46f
7:06am 14 18 mph 1015.4mb 49f 46f
7:00am 11 15 mph 1015.3mb 49f 46f
6:54am 5 9 mph 1015.1mb 49f 46f
6:48am 6 9 mph 1015.1mb 49f 46f
6:42am 7 13 mph 1015mb 49f 45f
6:36am 10 13 mph 1015mb 49f 46f
6:30am 7 16 mph 1014.9mb 49f 46f
6:24am 13 15 mph 1014.5mb 49f 46f
6:18am 10 13 mph 1014.5mb 49f 46f
6:12am 10 13 mph 1014.5mb 49f 45f
6:06am 11 14 mph 1014.5mb 49f 45f
6:00am 11 15 mph 1014.4mb 49f 45f
5:54am 13 16 mph 1014.3mb 49f 45f
5:48am 14 16 mph 1014.2mb 49f 45f
5:42am 14 16 mph 1014.1mb 49f 45f
5:36am 15 16 mph 1014mb 49f 45f
5:30am 15 18 mph 1013.8mb 49f 45f
5:24am 15 21 mph 1013.7mb 49f 45f
5:18am 16 18 mph 1013.7mb 49f 45f
5:12am 16 21 mph 1013.6mb 49f 45f
5:06am 15 22 mph 1013.4mb 49f 46f
5:00am 16 21 mph 1013.3mb 49f 46f
4:54am 20 22 mph 1013.1mb 49f 46f
4:48am 17 22 mph 1013.1mb 49f 46f
4:42am 16 21 mph 1013mb 49f 46f
4:36am 14 20 mph 1012.9mb 49f 46f
4:30am 14 17 mph 1013mb 49f 46f
4:24am 7 11 mph 1013mb 49f 46f
4:18am 7 11 mph 1012.9mb 49f 46f
4:12am 10 14 mph 1012.8mb 49f 46f
4:06am 11 14 mph 1012.8mb 49f 46f
4:00am 11 16 mph 1012.8mb 49f 46f
3:54am 14 18 mph 1012.6mb 49f 46f
3:48am 15 16 mph 1012.5mb 49f 46f
3:42am 14 17 mph 1012.4mb 49f 46f
3:36am 13 16 mph 1012.4mb 49f 46f
3:30am 13 15 mph 1012.4mb 49f 46f
3:24am 13 15 mph 1012.3mb 49f 46f
3:18am 13 14 mph 1012.2mb 49f 46f
3:12am 13 15 mph 1012.2mb 49f 47f
3:06am 11 13 mph 1012.3mb 49f 46f
3:00am 10 14 mph 1012.1mb 49f 46f
2:54am 10 13 mph 1012.2mb 49f 46f
2:48am 11 14 mph 1012.1mb 49f 46f
2:42am 10 14 mph 1012.2mb 49f 46f
2:36am 10 14 mph 1012.1mb 49f 46f
2:30am 8 14 mph 1012.1mb 49f 46f
2:24am 10 14 mph 1012.1mb 49f 46f
2:18am 10 16 mph 1012mb 49f 46f
2:12am 11 15 mph 1011.9mb 49f 46f
2:06am 14 17 mph 1012mb 49f 46f
2:00am 11 20 mph 1012mb 49f 46f
1:54am 16 21 mph 1012mb 49f 46f
1:48am 9 10 mph 1011.6mb 49f 48f
1:42am 8 9 mph 1011.6mb 49f 48f
1:36am 10 13 mph 1011.6mb 49f 48f
1:30am 8 15 mph 1011.6mb 49f 48f
1:24am 10 14 mph 1011.5mb 49f 48f
1:18am 10 15 mph 1011.5mb 49f 48f
1:12am 8 11 mph 1011.4mb 49f 48f
1:06am 8 13 mph 1011.3mb 49f 47f
1:00am 9 14 mph 1011.4mb 49f 47f
12:54am 13 18 mph 1011.4mb 49f 47f
12:48am 16 21 mph 1011.4mb 49f 47f
12:42am 13 17 mph 1011.4mb 49f 47f
12:36am 13 17 mph 1011.3mb 49f 48f
12:30am 11 14 mph 1011.3mb 49f 48f
12:24am 11 14 mph 1011.3mb 49f 48f
12:18am 11 14 mph 1011.3mb 49f 48f
12:12am 13 17 mph 1011.2mb 49f 48f
12:06am 14 16 mph 1011.1mb 49f 48f
12:00am 10 16 mph 1011.1mb 49f 48f
Sun 03/26 11:54pm 14 17 mph 1011mb 49f 48f
11:48pm 14 16 mph 1010.9mb 49f 48f
11:42pm 11 15 mph 1010.9mb 49f 48f
11:36pm 13 15 mph 1010.9mb 49f 48f
11:30pm 11 15 mph 1010.9mb 49f 48f
11:24pm 11 15 mph 1010.8mb 49f 48f
11:18pm 13 16 mph 1010.8mb 49f 48f
11:12pm 14 16 mph 1010.7mb 49f 48f
11:06pm 13 17 mph 1010.7mb 49f 48f
11:00pm 14 20 mph 1010.6mb 49f 48f
10:54pm 14 17 mph 1010.5mb 49f 48f
10:48pm 14 17 mph 1010.5mb 49f 48f
10:42pm 14 18 mph 1010.4mb 49f 48f
10:36pm 14 20 mph 1010.3mb 49f 48f
10:30pm 14 18 mph 1010.2mb 49f 48f
10:24pm 13 16 mph 1010.1mb 49f 48f
10:18pm 13 18 mph 1010.1mb 49f 47f
10:12pm 13 20 mph 1010mb 49f 47f
10:06pm 14 16 mph 1009.9mb 49f 48f
10:00pm 13 15 mph 1009.8mb 49f 48f
9:54pm 13 14 mph 1009.8mb 49f 48f
9:48pm 11 14 mph 1009.7mb 49f 48f
9:42pm 13 15 mph 1009.6mb 49f 48f
9:36pm 11 14 mph 1009.6mb 49f 48f
9:30pm 10 14 mph 1009.6mb 49f 48f
9:24pm 10 14 mph 1009.6mb 49f 48f
9:18pm 11 13 mph 1009.5mb 49f 48f
9:12pm 10 13 mph 1009.6mb 49f 48f
9:06pm 10 13 mph 1009.5mb 49f 48f
9:00pm 9 13 mph 1009.4mb 49f 48f
8:54pm 9 11 mph 1009.4mb 49f 48f
8:48pm 9 11 mph 1009.3mb 49f 48f
8:42pm 9 10 mph 1009.3mb 49f 48f
8:36pm 8 10 mph 1009.2mb 49f 48f
8:30pm 7 9 mph 1009.2mb 49f 48f
8:24pm 7 9 mph 1009.2mb 49f 48f
8:18pm 8 10 mph 1009.2mb 49f 48f
8:12pm 7 10 mph 1009.1mb 49f 48f
8:06pm 7 10 mph 1009.1mb 49f 49f
8:00pm 7 11 mph 1009mb 49f 49f
7:54pm 8 11 mph 1009mb 49f 49f
7:48pm 8 10 mph 1008.9mb 49f 49f
7:42pm 8 11 mph 1008.9mb 49f 49f
7:36pm 9 14 mph 1008.9mb 49f 49f
7:30pm 11 14 mph 1008.8mb 49f 49f
7:24pm 11 16 mph 1008.7mb 49f 49f
7:18pm 11 14 mph 1008.7mb 49f 49f
7:12pm 10 14 mph 1008.6mb 49f 49f
7:06pm 9 14 mph 1008.5mb 49f 49f
7:00pm 9 13 mph 1008.4mb 49f 49f
6:54pm 10 14 mph 1008.4mb 49f 49f
6:48pm 9 14 mph 1008.4mb 49f 48f
6:42pm 10 13 mph 1008.3mb 49f 48f
6:36pm 11 14 mph 1008.2mb 49f 48f
6:30pm 13 17 mph 1008.1mb 49f 48f
6:24pm 14 17 mph 1008mb 49f 48f
6:18pm 10 14 mph 1008mb 49f 49f
6:12pm 8 13 mph 1007.9mb 49f 49f
6:06pm 8 13 mph 1007.8mb 49f 49f
6:00pm 8 13 mph 1007.8mb 49f 49f
5:54pm 8 10 mph 1007.7mb 49f 49f
5:48pm 8 15 mph - - -
5:42pm 10 15 mph 1007.5mb 49f 48f
5:36pm 11 15 mph 1007.5mb 49f 48f
5:30pm 14 18 mph 1007.4mb 49f 48f
5:24pm 10 15 mph 1007.4mb 49f 48f
5:18pm 10 15 mph 1007.3mb 49f 48f
5:12pm 11 16 mph 1007.2mb 49f 48f
5:06pm 15 18 mph 1007.1mb 49f 48f
5:00pm 10 17 mph 1007mb 49f 49f
4:54pm 11 16 mph 1006.9mb 49f 49f
4:48pm 10 15 mph 1006.8mb 49f 49f
4:42pm 11 15 mph 1006.7mb 49f 49f
4:36pm 9 11 mph 1006.5mb 49f 49f
4:30pm 9 13 mph 1006.4mb 49f 49f
4:24pm 10 14 mph 1006.3mb 49f 49f
4:18pm 11 15 mph 1006.2mb 49f 49f
4:12pm 9 13 mph 1006.3mb 49f 49f
4:06pm 13 17 mph 1006.2mb 49f 48f
4:00pm 11 17 mph 1006.2mb 49f 48f
3:54pm 13 17 mph 1006.2mb 49f 48f
3:48pm 8 13 mph 1006.1mb 49f 48f
3:42pm 13 20 mph 1006mb 49f 48f
3:36pm 16 23 mph 1006mb 49f 47f
3:30pm 18 22 mph 1005.8mb 49f 47f
3:24pm 13 17 mph 1005.9mb 49f 47f
3:18pm 16 18 mph 1005.8mb 49f 47f
3:12pm 14 17 mph 1005.7mb 49f 47f
3:06pm 14 16 mph 1005.7mb 49f 47f
3:00pm 14 16 mph 1005.7mb 49f 47f
2:54pm 14 17 mph 1005.7mb 49f 47f
2:48pm 14 17 mph 1005.7mb 49f 47f
2:42pm 14 17 mph 1005.7mb 49f 46f
2:36pm 15 18 mph 1005.7mb 49f 46f
2:30pm 16 21 mph 1005.8mb 49f 46f
2:24pm 16 20 mph 1005.8mb 49f 46f
2:18pm 17 21 mph 1005.9mb 49f 46f
2:12pm 16 20 mph 1006mb 49f 46f
2:06pm 15 18 mph 1006mb 49f 46f
2:00pm 16 18 mph 1006mb 49f 46f
1:54pm 16 18 mph 1006mb 49f 46f
1:48pm 13 17 mph 1006.1mb 49f 46f
1:42pm 13 16 mph 1006mb 49f 46f
1:36pm 16 18 mph 1006.1mb 49f 46f
1:30pm 11 17 mph 1006.1mb 49f 46f
1:24pm 15 17 mph 1006.1mb 49f 46f
1:18pm 15 20 mph 1006.1mb 49f 46f
1:12pm 16 21 mph 1006.1mb 49f 46f
1:06pm 14 18 mph 1006.2mb 49f 46f
1:00pm 10 15 mph 1006.3mb 49f 46f
12:54pm 9 14 mph 1006.3mb 49f 45f
12:48pm 8 11 mph 1006.4mb 49f 45f